sensor_id;sensor_type;location;lat;lon;timestamp;temperature;humidity
60313;DHT22;46158;52.850;6.970;2023-06-10T00:00:15;20.20;69.30
60313;DHT22;46158;52.850;6.970;2023-06-10T00:02:42;20.20;69.30
60313;DHT22;46158;52.850;6.970;2023-06-10T00:05:09;20.20;69.40
60313;DHT22;46158;52.850;6.970;2023-06-10T00:07:35;20.20;69.40
60313;DHT22;46158;52.850;6.970;2023-06-10T00:10:05;20.20;69.50
60313;DHT22;46158;52.850;6.970;2023-06-10T00:12:31;20.20;69.40
60313;DHT22;46158;52.850;6.970;2023-06-10T00:15:06;20.10;69.30
60313;DHT22;46158;52.850;6.970;2023-06-10T00:17:38;20.10;69.40
60313;DHT22;46158;52.850;6.970;2023-06-10T00:20:14;20.20;69.40
60313;DHT22;46158;52.850;6.970;2023-06-10T00:22:40;20.20;69.50
60313;DHT22;46158;52.850;6.970;2023-06-10T00:25:12;20.10;69.40
60313;DHT22;46158;52.850;6.970;2023-06-10T00:27:39;20.10;69.40
60313;DHT22;46158;52.850;6.970;2023-06-10T00:30:18;20.10;69.50
60313;DHT22;46158;52.850;6.970;2023-06-10T00:32:44;20.10;69.50
60313;DHT22;46158;52.850;6.970;2023-06-10T00:35:10;20.10;69.50
60313;DHT22;46158;52.850;6.970;2023-06-10T00:37:36;20.10;69.50
60313;DHT22;46158;52.850;6.970;2023-06-10T00:40:03;20.10;69.50
60313;DHT22;46158;52.850;6.970;2023-06-10T00:42:30;20.10;69.60
60313;DHT22;46158;52.850;6.970;2023-06-10T00:44:58;20.10;69.60
60313;DHT22;46158;52.850;6.970;2023-06-10T00:47:25;20.10;69.50
60313;DHT22;46158;52.850;6.970;2023-06-10T00:49:55;20.10;69.60
60313;DHT22;46158;52.850;6.970;2023-06-10T00:52:22;20.10;69.50
60313;DHT22;46158;52.850;6.970;2023-06-10T00:54:53;20.10;70.30
60313;DHT22;46158;52.850;6.970;2023-06-10T00:57:42;20.00;69.50
60313;DHT22;46158;52.850;6.970;2023-06-10T01:00:14;20.10;69.50
60313;DHT22;46158;52.850;6.970;2023-06-10T01:02:46;20.00;69.50
60313;DHT22;46158;52.850;6.970;2023-06-10T01:05:15;20.00;69.50
60313;DHT22;46158;52.850;6.970;2023-06-10T01:08:32;20.10;69.60
60313;DHT22;46158;52.850;6.970;2023-06-10T01:11:07;20.00;69.50
60313;DHT22;46158;52.850;6.970;2023-06-10T01:13:43;20.00;69.60
60313;DHT22;46158;52.850;6.970;2023-06-10T01:16:15;20.00;69.60
60313;DHT22;46158;52.850;6.970;2023-06-10T01:18:44;20.00;69.50
60313;DHT22;46158;52.850;6.970;2023-06-10T01:21:22;20.00;69.50
60313;DHT22;46158;52.850;6.970;2023-06-10T01:23:53;20.00;69.50
60313;DHT22;46158;52.850;6.970;2023-06-10T01:26:25;20.00;69.50
60313;DHT22;46158;52.850;6.970;2023-06-10T01:28:58;20.00;69.50
60313;DHT22;46158;52.850;6.970;2023-06-10T01:34:14;20.00;69.50
60313;DHT22;46158;52.850;6.970;2023-06-10T01:36:47;20.00;69.50
60313;DHT22;46158;52.850;6.970;2023-06-10T01:39:15;19.90;69.40
60313;DHT22;46158;52.850;6.970;2023-06-10T01:41:48;19.90;69.50
60313;DHT22;46158;52.850;6.970;2023-06-10T01:44:21;20.00;69.50
60313;DHT22;46158;52.850;6.970;2023-06-10T01:46:48;19.90;69.50
60313;DHT22;46158;52.850;6.970;2023-06-10T01:49:14;20.00;69.50
60313;DHT22;46158;52.850;6.970;2023-06-10T01:51:40;19.90;69.50
60313;DHT22;46158;52.850;6.970;2023-06-10T01:54:10;19.90;69.40
60313;DHT22;46158;52.850;6.970;2023-06-10T01:56:36;19.90;70.20
60313;DHT22;46158;52.850;6.970;2023-06-10T01:59:01;19.90;69.50
60313;DHT22;46158;52.850;6.970;2023-06-10T02:01:28;19.90;69.50
60313;DHT22;46158;52.850;6.970;2023-06-10T02:03:57;19.90;69.40
60313;DHT22;46158;52.850;6.970;2023-06-10T02:06:31;19.90;69.40
60313;DHT22;46158;52.850;6.970;2023-06-10T02:09:05;19.90;69.50
60313;DHT22;46158;52.850;6.970;2023-06-10T02:11:33;19.80;69.40
60313;DHT22;46158;52.850;6.970;2023-06-10T02:13:59;19.90;69.40
60313;DHT22;46158;52.850;6.970;2023-06-10T02:16:25;19.90;69.40
60313;DHT22;46158;52.850;6.970;2023-06-10T02:18:55;19.80;69.30
60313;DHT22;46158;52.850;6.970;2023-06-10T02:21:22;19.80;69.30
60313;DHT22;46158;52.850;6.970;2023-06-10T02:23:54;19.80;69.30
60313;DHT22;46158;52.850;6.970;2023-06-10T02:26:22;19.80;69.30
60313;DHT22;46158;52.850;6.970;2023-06-10T02:28:51;19.80;69.20
60313;DHT22;46158;52.850;6.970;2023-06-10T02:31:17;19.80;69.20
60313;DHT22;46158;52.850;6.970;2023-06-10T02:33:44;19.80;69.20
60313;DHT22;46158;52.850;6.970;2023-06-10T02:36:10;19.80;69.20
60313;DHT22;46158;52.850;6.970;2023-06-10T02:38:42;19.80;69.20
60313;DHT22;46158;52.850;6.970;2023-06-10T02:41:14;19.80;69.20
60313;DHT22;46158;52.850;6.970;2023-06-10T02:43:40;19.80;69.80
60313;DHT22;46158;52.850;6.970;2023-06-10T02:46:08;19.70;69.10
60313;DHT22;46158;52.850;6.970;2023-06-10T02:48:41;19.70;69.20
60313;DHT22;46158;52.850;6.970;2023-06-10T02:51:10;19.70;69.10
60313;DHT22;46158;52.850;6.970;2023-06-10T02:53:44;19.70;69.20
60313;DHT22;46158;52.850;6.970;2023-06-10T02:56:11;19.70;69.20
60313;DHT22;46158;52.850;6.970;2023-06-10T02:58:43;19.70;69.20
60313;DHT22;46158;52.850;6.970;2023-06-10T03:01:13;19.70;69.20
60313;DHT22;46158;52.850;6.970;2023-06-10T03:03:43;19.70;69.30
60313;DHT22;46158;52.850;6.970;2023-06-10T03:06:13;19.60;69.30
60313;DHT22;46158;52.850;6.970;2023-06-10T03:08:40;19.60;69.30
60313;DHT22;46158;52.850;6.970;2023-06-10T03:11:08;19.60;69.40
60313;DHT22;46158;52.850;6.970;2023-06-10T03:13:38;19.60;69.40
60313;DHT22;46158;52.850;6.970;2023-06-10T03:16:10;19.60;69.40
60313;DHT22;46158;52.850;6.970;2023-06-10T03:18:38;19.60;69.40
60313;DHT22;46158;52.850;6.970;2023-06-10T03:21:07;19.60;69.40
60313;DHT22;46158;52.850;6.970;2023-06-10T03:23:34;19.60;69.50
60313;DHT22;46158;52.850;6.970;2023-06-10T03:26:00;19.60;69.50
60313;DHT22;46158;52.850;6.970;2023-06-10T03:28:26;19.60;69.50
60313;DHT22;46158;52.850;6.970;2023-06-10T03:30:52;19.60;69.50
60313;DHT22;46158;52.850;6.970;2023-06-10T03:33:22;19.60;69.50
60313;DHT22;46158;52.850;6.970;2023-06-10T03:36:00;19.60;69.60
60313;DHT22;46158;52.850;6.970;2023-06-10T03:38:29;19.60;69.50
60313;DHT22;46158;52.850;6.970;2023-06-10T03:40:55;19.60;69.60
60313;DHT22;46158;52.850;6.970;2023-06-10T03:43:21;19.50;69.60
60313;DHT22;46158;52.850;6.970;2023-06-10T03:45:47;19.50;69.60
60313;DHT22;46158;52.850;6.970;2023-06-10T03:48:13;19.50;69.60
60313;DHT22;46158;52.850;6.970;2023-06-10T03:50:41;19.50;69.70
60313;DHT22;46158;52.850;6.970;2023-06-10T03:53:10;19.50;69.70
60313;DHT22;46158;52.850;6.970;2023-06-10T03:55:37;19.50;69.80
60313;DHT22;46158;52.850;6.970;2023-06-10T03:58:05;19.50;69.80
60313;DHT22;46158;52.850;6.970;2023-06-10T04:00:39;19.50;69.80
60313;DHT22;46158;52.850;6.970;2023-06-10T04:03:09;19.50;69.80
60313;DHT22;46158;52.850;6.970;2023-06-10T04:05:43;19.50;69.90
60313;DHT22;46158;52.850;6.970;2023-06-10T04:08:14;19.50;70.00
60313;DHT22;46158;52.850;6.970;2023-06-10T04:10:40;19.40;69.90
60313;DHT22;46158;52.850;6.970;2023-06-10T04:13:12;19.50;70.10
60313;DHT22;46158;52.850;6.970;2023-06-10T04:15:40;19.50;70.10
60313;DHT22;46158;52.850;6.970;2023-06-10T04:18:12;19.40;70.10
60313;DHT22;46158;52.850;6.970;2023-06-10T04:20:41;19.40;70.10
60313;DHT22;46158;52.850;6.970;2023-06-10T04:23:12;19.40;70.20
60313;DHT22;46158;52.850;6.970;2023-06-10T04:25:40;19.40;70.10
60313;DHT22;46158;52.850;6.970;2023-06-10T04:28:13;19.40;70.20
60313;DHT22;46158;52.850;6.970;2023-06-10T04:30:50;19.40;70.30
60313;DHT22;46158;52.850;6.970;2023-06-10T04:33:16;19.40;70.30
60313;DHT22;46158;52.850;6.970;2023-06-10T04:35:42;19.40;70.30
60313;DHT22;46158;52.850;6.970;2023-06-10T04:38:08;19.40;70.30
60313;DHT22;46158;52.850;6.970;2023-06-10T04:40:34;19.40;70.30
60313;DHT22;46158;52.850;6.970;2023-06-10T04:43:00;19.40;70.40
60313;DHT22;46158;52.850;6.970;2023-06-10T04:45:26;19.40;70.50
60313;DHT22;46158;52.850;6.970;2023-06-10T04:47:55;19.40;70.50
60313;DHT22;46158;52.850;6.970;2023-06-10T04:50:27;19.30;70.40
60313;DHT22;46158;52.850;6.970;2023-06-10T04:52:53;19.30;70.50
60313;DHT22;46158;52.850;6.970;2023-06-10T04:55:23;19.30;70.50
60313;DHT22;46158;52.850;6.970;2023-06-10T04:57:58;19.30;70.50
60313;DHT22;46158;52.850;6.970;2023-06-10T05:00:27;19.30;70.50
60313;DHT22;46158;52.850;6.970;2023-06-10T05:02:53;19.30;70.60
60313;DHT22;46158;52.850;6.970;2023-06-10T05:05:23;19.30;70.60
60313;DHT22;46158;52.850;6.970;2023-06-10T05:07:49;19.30;70.70
60313;DHT22;46158;52.850;6.970;2023-06-10T05:10:21;19.30;70.70
60313;DHT22;46158;52.850;6.970;2023-06-10T05:12:47;19.30;70.70
60313;DHT22;46158;52.850;6.970;2023-06-10T05:15:13;19.30;70.70
60313;DHT22;46158;52.850;6.970;2023-06-10T05:17:48;19.30;70.80
60313;DHT22;46158;52.850;6.970;2023-06-10T05:20:15;19.30;70.80
60313;DHT22;46158;52.850;6.970;2023-06-10T05:22:41;19.30;71.10
60313;DHT22;46158;52.850;6.970;2023-06-10T05:25:07;19.20;70.80
60313;DHT22;46158;52.850;6.970;2023-06-10T05:27:33;19.30;70.90
60313;DHT22;46158;52.850;6.970;2023-06-10T05:29:59;19.20;70.80
60313;DHT22;46158;52.850;6.970;2023-06-10T05:32:25;19.20;70.90
60313;DHT22;46158;52.850;6.970;2023-06-10T05:34:52;19.30;70.90
60313;DHT22;46158;52.850;6.970;2023-06-10T05:37:18;19.20;70.90
60313;DHT22;46158;52.850;6.970;2023-06-10T05:39:44;19.20;70.90
60313;DHT22;46158;52.850;6.970;2023-06-10T05:42:10;19.20;70.90
60313;DHT22;46158;52.850;6.970;2023-06-10T05:44:36;19.20;71.00
60313;DHT22;46158;52.850;6.970;2023-06-10T05:47:02;19.20;71.00
60313;DHT22;46158;52.850;6.970;2023-06-10T05:49:28;19.20;71.00
60313;DHT22;46158;52.850;6.970;2023-06-10T05:51:54;19.20;71.00
60313;DHT22;46158;52.850;6.970;2023-06-10T05:54:22;19.20;71.00
60313;DHT22;46158;52.850;6.970;2023-06-10T05:56:48;19.20;71.00
60313;DHT22;46158;52.850;6.970;2023-06-10T05:59:14;19.20;71.00
60313;DHT22;46158;52.850;6.970;2023-06-10T06:01:45;19.20;71.00
60313;DHT22;46158;52.850;6.970;2023-06-10T06:04:14;19.20;71.10
60313;DHT22;46158;52.850;6.970;2023-06-10T06:06:40;19.20;71.00
60313;DHT22;46158;52.850;6.970;2023-06-10T06:09:06;19.20;71.00
60313;DHT22;46158;52.850;6.970;2023-06-10T06:11:33;19.20;71.10
60313;DHT22;46158;52.850;6.970;2023-06-10T06:14:00;19.20;71.10
60313;DHT22;46158;52.850;6.970;2023-06-10T06:16:25;19.20;71.10
60313;DHT22;46158;52.850;6.970;2023-06-10T06:18:52;19.20;71.10
60313;DHT22;46158;52.850;6.970;2023-06-10T06:21:17;19.20;71.10
60313;DHT22;46158;52.850;6.970;2023-06-10T06:23:43;19.20;71.10
60313;DHT22;46158;52.850;6.970;2023-06-10T06:26:09;19.20;71.10
60313;DHT22;46158;52.850;6.970;2023-06-10T06:28:35;19.20;71.10
60313;DHT22;46158;52.850;6.970;2023-06-10T06:31:01;19.20;71.10
60313;DHT22;46158;52.850;6.970;2023-06-10T06:33:27;19.20;71.10
60313;DHT22;46158;52.850;6.970;2023-06-10T06:35:53;19.20;71.20
60313;DHT22;46158;52.850;6.970;2023-06-10T06:38:19;19.20;71.10
60313;DHT22;46158;52.850;6.970;2023-06-10T06:40:45;19.20;71.10
60313;DHT22;46158;52.850;6.970;2023-06-10T06:43:10;19.20;71.20
60313;DHT22;46158;52.850;6.970;2023-06-10T06:45:36;19.20;71.20
60313;DHT22;46158;52.850;6.970;2023-06-10T06:48:02;19.20;71.20
60313;DHT22;46158;52.850;6.970;2023-06-10T06:50:31;19.20;71.20
60313;DHT22;46158;52.850;6.970;2023-06-10T06:52:57;19.30;71.20
60313;DHT22;46158;52.850;6.970;2023-06-10T06:55:23;19.20;71.20
60313;DHT22;46158;52.850;6.970;2023-06-10T06:57:48;19.20;71.20
60313;DHT22;46158;52.850;6.970;2023-06-10T07:00:14;19.20;71.20
60313;DHT22;46158;52.850;6.970;2023-06-10T07:02:40;19.20;71.20
60313;DHT22;46158;52.850;6.970;2023-06-10T07:05:06;19.30;71.20
60313;DHT22;46158;52.850;6.970;2023-06-10T07:07:32;19.30;71.20
60313;DHT22;46158;52.850;6.970;2023-06-10T07:09:59;19.30;71.20
60313;DHT22;46158;52.850;6.970;2023-06-10T07:12:26;19.30;71.20
60313;DHT22;46158;52.850;6.970;2023-06-10T07:14:52;19.30;71.30
60313;DHT22;46158;52.850;6.970;2023-06-10T07:17:18;19.30;71.30
60313;DHT22;46158;52.850;6.970;2023-06-10T07:19:45;19.30;71.30
60313;DHT22;46158;52.850;6.970;2023-06-10T07:22:11;19.30;71.30
60313;DHT22;46158;52.850;6.970;2023-06-10T07:24:37;19.30;71.30
60313;DHT22;46158;52.850;6.970;2023-06-10T07:27:03;19.30;71.20
60313;DHT22;46158;52.850;6.970;2023-06-10T07:29:29;19.40;71.30
60313;DHT22;46158;52.850;6.970;2023-06-10T07:31:56;19.40;71.30
60313;DHT22;46158;52.850;6.970;2023-06-10T07:34:22;19.40;71.30
60313;DHT22;46158;52.850;6.970;2023-06-10T07:36:48;19.40;71.00
60313;DHT22;46158;52.850;6.970;2023-06-10T07:39:14;19.40;70.80
60313;DHT22;46158;52.850;6.970;2023-06-10T07:41:41;19.40;70.50
60313;DHT22;46158;52.850;6.970;2023-06-10T07:44:07;19.40;70.30
60313;DHT22;46158;52.850;6.970;2023-06-10T07:46:32;19.40;70.20
60313;DHT22;46158;52.850;6.970;2023-06-10T07:48:58;19.40;70.10
60313;DHT22;46158;52.850;6.970;2023-06-10T07:51:24;19.40;70.10
60313;DHT22;46158;52.850;6.970;2023-06-10T07:53:50;19.40;70.10
60313;DHT22;46158;52.850;6.970;2023-06-10T07:56:16;19.40;70.00
60313;DHT22;46158;52.850;6.970;2023-06-10T07:58:41;19.40;70.70
60313;DHT22;46158;52.850;6.970;2023-06-10T08:01:10;19.40;69.90
60313;DHT22;46158;52.850;6.970;2023-06-10T08:03:36;19.40;69.80
60313;DHT22;46158;52.850;6.970;2023-06-10T08:06:02;19.40;69.80
60313;DHT22;46158;52.850;6.970;2023-06-10T08:08:28;19.40;69.70
60313;DHT22;46158;52.850;6.970;2023-06-10T08:10:54;19.40;70.30
60313;DHT22;46158;52.850;6.970;2023-06-10T08:13:19;19.40;69.50
60313;DHT22;46158;52.850;6.970;2023-06-10T08:15:45;19.40;69.50
60313;DHT22;46158;52.850;6.970;2023-06-10T08:18:13;19.50;69.50
60313;DHT22;46158;52.850;6.970;2023-06-10T08:20:39;19.50;69.40
60313;DHT22;46158;52.850;6.970;2023-06-10T08:23:04;19.50;69.30
60313;DHT22;46158;52.850;6.970;2023-06-10T08:25:30;19.50;69.30
60313;DHT22;46158;52.850;6.970;2023-06-10T08:27:56;19.50;69.20
60313;DHT22;46158;52.850;6.970;2023-06-10T08:30:24;19.50;69.20
60313;DHT22;46158;52.850;6.970;2023-06-10T08:32:50;19.50;69.10
60313;DHT22;46158;52.850;6.970;2023-06-10T08:35:20;19.50;69.00
60313;DHT22;46158;52.850;6.970;2023-06-10T08:37:49;19.60;69.70
60313;DHT22;46158;52.850;6.970;2023-06-10T08:40:15;19.50;68.90
60313;DHT22;46158;52.850;6.970;2023-06-10T08:45:07;19.60;68.80
60313;DHT22;46158;52.850;6.970;2023-06-10T08:47:39;19.60;68.80
60313;DHT22;46158;52.850;6.970;2023-06-10T08:50:07;19.60;68.70
60313;DHT22;46158;52.850;6.970;2023-06-10T08:52:37;19.60;68.60
60313;DHT22;46158;52.850;6.970;2023-06-10T08:55:48;19.60;68.60
60313;DHT22;46158;52.850;6.970;2023-06-10T08:58:17;19.70;68.40
60313;DHT22;46158;52.850;6.970;2023-06-10T09:00:43;19.60;68.50
60313;DHT22;46158;52.850;6.970;2023-06-10T09:03:11;19.60;68.50
60313;DHT22;46158;52.850;6.970;2023-06-10T09:05:38;19.70;68.40
60313;DHT22;46158;52.850;6.970;2023-06-10T09:08:06;19.70;68.40
60313;DHT22;46158;52.850;6.970;2023-06-10T09:10:33;19.70;68.30
60313;DHT22;46158;52.850;6.970;2023-06-10T09:12:59;19.70;68.20
60313;DHT22;46158;52.850;6.970;2023-06-10T09:15:25;19.70;68.20
60313;DHT22;46158;52.850;6.970;2023-06-10T09:17:51;19.70;68.10
60313;DHT22;46158;52.850;6.970;2023-06-10T09:20:17;19.70;68.00
60313;DHT22;46158;52.850;6.970;2023-06-10T09:22:43;19.80;68.00
60313;DHT22;46158;52.850;6.970;2023-06-10T09:25:11;19.80;67.90
60313;DHT22;46158;52.850;6.970;2023-06-10T09:27:48;19.80;67.80
60313;DHT22;46158;52.850;6.970;2023-06-10T09:32:56;19.80;67.70
60313;DHT22;46158;52.850;6.970;2023-06-10T09:35:23;19.80;67.70
60313;DHT22;46158;52.850;6.970;2023-06-10T09:37:54;19.80;67.70
60313;DHT22;46158;52.850;6.970;2023-06-10T09:40:20;19.80;67.50
60313;DHT22;46158;52.850;6.970;2023-06-10T09:42:56;19.80;67.50
60313;DHT22;46158;52.850;6.970;2023-06-10T09:45:23;19.90;67.50
60313;DHT22;46158;52.850;6.970;2023-06-10T09:47:53;19.80;67.30
60313;DHT22;46158;52.850;6.970;2023-06-10T09:50:19;19.90;67.30
60313;DHT22;46158;52.850;6.970;2023-06-10T09:52:46;19.90;67.20
60313;DHT22;46158;52.850;6.970;2023-06-10T09:55:16;19.90;67.20
60313;DHT22;46158;52.850;6.970;2023-06-10T09:57:42;19.90;67.00
60313;DHT22;46158;52.850;6.970;2023-06-10T10:00:12;19.90;67.00
60313;DHT22;46158;52.850;6.970;2023-06-10T10:02:49;19.90;67.00
60313;DHT22;46158;52.850;6.970;2023-06-10T10:05:22;20.00;66.80
60313;DHT22;46158;52.850;6.970;2023-06-10T10:07:49;20.00;66.80
60313;DHT22;46158;52.850;6.970;2023-06-10T10:10:19;20.00;66.70
60313;DHT22;46158;52.850;6.970;2023-06-10T10:12:53;20.00;66.60
60313;DHT22;46158;52.850;6.970;2023-06-10T10:15:21;20.00;66.50
60313;DHT22;46158;52.850;6.970;2023-06-10T10:20:20;20.00;66.30
60313;DHT22;46158;52.850;6.970;2023-06-10T10:22:49;20.00;66.20
60313;DHT22;46158;52.850;6.970;2023-06-10T10:25:32;20.00;66.20
60313;DHT22;46158;52.850;6.970;2023-06-10T10:30:40;20.10;65.90
60313;DHT22;46158;52.850;6.970;2023-06-10T10:33:12;20.10;65.90
60313;DHT22;46158;52.850;6.970;2023-06-10T10:35:39;20.10;65.70
60313;DHT22;46158;52.850;6.970;2023-06-10T10:38:06;20.10;65.60
60313;DHT22;46158;52.850;6.970;2023-06-10T10:40:33;20.10;65.50
60313;DHT22;46158;52.850;6.970;2023-06-10T10:42:59;20.10;65.20
60313;DHT22;46158;52.850;6.970;2023-06-10T10:45:28;20.10;65.10
60313;DHT22;46158;52.850;6.970;2023-06-10T10:48:23;20.10;64.90
60313;DHT22;46158;52.850;6.970;2023-06-10T10:50:59;20.10;64.20
60313;DHT22;46158;52.850;6.970;2023-06-10T10:53:25;20.10;64.50
60313;DHT22;46158;52.850;6.970;2023-06-10T10:56:07;20.10;64.60
60313;DHT22;46158;52.850;6.970;2023-06-10T10:58:36;20.20;64.00
60313;DHT22;46158;52.850;6.970;2023-06-10T11:01:13;20.10;64.20
60313;DHT22;46158;52.850;6.970;2023-06-10T11:03:43;20.10;63.70
60313;DHT22;46158;52.850;6.970;2023-06-10T11:06:14;20.20;64.00
60313;DHT22;46158;52.850;6.970;2023-06-10T11:08:47;20.10;63.80
60313;DHT22;46158;52.850;6.970;2023-06-10T11:11:25;20.20;63.50
60313;DHT22;46158;52.850;6.970;2023-06-10T11:16:42;20.10;62.40
60313;DHT22;46158;52.850;6.970;2023-06-10T11:19:09;20.10;63.10
60313;DHT22;46158;52.850;6.970;2023-06-10T11:21:57;20.10;63.40
60313;DHT22;46158;52.850;6.970;2023-06-10T11:24:25;20.20;63.80
60313;DHT22;46158;52.850;6.970;2023-06-10T11:27:16;20.20;64.20
60313;DHT22;46158;52.850;6.970;2023-06-10T11:32:36;20.20;64.80
60313;DHT22;46158;52.850;6.970;2023-06-10T11:35:05;20.20;64.90
60313;DHT22;46158;52.850;6.970;2023-06-10T11:37:33;20.20;65.00
60313;DHT22;46158;52.850;6.970;2023-06-10T11:40:05;20.20;65.00
60313;DHT22;46158;52.850;6.970;2023-06-10T11:42:42;20.20;65.10
60313;DHT22;46158;52.850;6.970;2023-06-10T11:45:08;20.20;65.20
60313;DHT22;46158;52.850;6.970;2023-06-10T11:48:05;20.30;65.20
60313;DHT22;46158;52.850;6.970;2023-06-10T11:50:33;20.30;65.30
60313;DHT22;46158;52.850;6.970;2023-06-10T11:53:04;20.30;65.40
60313;DHT22;46158;52.850;6.970;2023-06-10T11:55:48;20.30;65.40
60313;DHT22;46158;52.850;6.970;2023-06-10T11:58:20;20.30;65.40
60313;DHT22;46158;52.850;6.970;2023-06-10T12:00:52;20.30;65.50
60313;DHT22;46158;52.850;6.970;2023-06-10T12:03:23;20.30;65.60
60313;DHT22;46158;52.850;6.970;2023-06-10T12:06:02;20.30;65.60
60313;DHT22;46158;52.850;6.970;2023-06-10T12:08:31;20.30;65.80
60313;DHT22;46158;52.850;6.970;2023-06-10T12:11:10;20.30;65.80
60313;DHT22;46158;52.850;6.970;2023-06-10T12:13:36;20.40;65.70
60313;DHT22;46158;52.850;6.970;2023-06-10T12:16:09;20.40;65.70
60313;DHT22;46158;52.850;6.970;2023-06-10T12:18:35;20.40;65.70
60313;DHT22;46158;52.850;6.970;2023-06-10T12:21:15;20.40;65.70
60313;DHT22;46158;52.850;6.970;2023-06-10T12:24:00;20.40;65.80
60313;DHT22;46158;52.850;6.970;2023-06-10T12:26:40;20.40;65.80
60313;DHT22;46158;52.850;6.970;2023-06-10T12:29:25;20.40;65.80
60313;DHT22;46158;52.850;6.970;2023-06-10T12:34:37;20.50;66.00
60313;DHT22;46158;52.850;6.970;2023-06-10T12:37:11;20.50;66.00
60313;DHT22;46158;52.850;6.970;2023-06-10T12:39:41;20.40;66.00
60313;DHT22;46158;52.850;6.970;2023-06-10T12:42:12;20.50;66.70
60313;DHT22;46158;52.850;6.970;2023-06-10T12:44:42;20.50;66.10
60313;DHT22;46158;52.850;6.970;2023-06-10T12:47:12;20.50;66.10
60313;DHT22;46158;52.850;6.970;2023-06-10T12:49:43;20.50;66.10
60313;DHT22;46158;52.850;6.970;2023-06-10T12:52:09;20.50;66.10
60313;DHT22;46158;52.850;6.970;2023-06-10T12:54:39;20.50;66.10
60313;DHT22;46158;52.850;6.970;2023-06-10T12:57:08;20.50;66.10
60313;DHT22;46158;52.850;6.970;2023-06-10T12:59:39;20.60;66.20
60313;DHT22;46158;52.850;6.970;2023-06-10T13:02:05;20.50;66.10
60313;DHT22;46158;52.850;6.970;2023-06-10T13:04:33;20.60;66.20
60313;DHT22;46158;52.850;6.970;2023-06-10T13:07:04;20.50;66.20
60313;DHT22;46158;52.850;6.970;2023-06-10T13:09:33;20.60;66.20
60313;DHT22;46158;52.850;6.970;2023-06-10T13:11:59;20.60;66.30
60313;DHT22;46158;52.850;6.970;2023-06-10T13:14:26;20.60;66.30
60313;DHT22;46158;52.850;6.970;2023-06-10T13:16:52;20.60;66.30
60313;DHT22;46158;52.850;6.970;2023-06-10T13:19:26;20.60;66.30
60313;DHT22;46158;52.850;6.970;2023-06-10T13:21:52;20.60;66.30
60313;DHT22;46158;52.850;6.970;2023-06-10T13:24:21;20.60;66.40
60313;DHT22;46158;52.850;6.970;2023-06-10T13:26:48;20.60;66.40
60313;DHT22;46158;52.850;6.970;2023-06-10T13:29:23;20.60;66.00
60313;DHT22;46158;52.850;6.970;2023-06-10T13:31:52;20.70;64.80
60313;DHT22;46158;52.850;6.970;2023-06-10T13:34:18;20.70;64.00
60313;DHT22;46158;52.850;6.970;2023-06-10T13:36:50;20.70;63.10
60313;DHT22;46158;52.850;6.970;2023-06-10T13:39:19;20.60;62.70
60313;DHT22;46158;52.850;6.970;2023-06-10T13:41:45;20.60;60.90
60313;DHT22;46158;52.850;6.970;2023-06-10T13:44:13;20.50;60.20
60313;DHT22;46158;52.850;6.970;2023-06-10T13:46:40;20.50;59.50
60313;DHT22;46158;52.850;6.970;2023-06-10T13:49:06;20.30;58.90
60313;DHT22;46158;52.850;6.970;2023-06-10T13:51:36;20.30;58.20
60313;DHT22;46158;52.850;6.970;2023-06-10T13:54:08;20.20;57.70
60313;DHT22;46158;52.850;6.970;2023-06-10T13:56:34;20.10;57.20
60313;DHT22;46158;52.850;6.970;2023-06-10T13:59:04;20.00;56.70
60313;DHT22;46158;52.850;6.970;2023-06-10T14:01:40;19.90;56.60
60313;DHT22;46158;52.850;6.970;2023-06-10T14:04:08;19.90;55.70
60313;DHT22;46158;52.850;6.970;2023-06-10T14:06:39;19.80;55.30
60313;DHT22;46158;52.850;6.970;2023-06-10T14:09:06;19.60;55.20
60313;DHT22;46158;52.850;6.970;2023-06-10T14:11:40;19.50;55.60
60313;DHT22;46158;52.850;6.970;2023-06-10T14:14:15;19.50;56.90
60313;DHT22;46158;52.850;6.970;2023-06-10T14:16:47;19.50;57.20
60313;DHT22;46158;52.850;6.970;2023-06-10T14:19:13;19.50;57.10
60313;DHT22;46158;52.850;6.970;2023-06-10T14:21:45;19.50;57.00
60313;DHT22;46158;52.850;6.970;2023-06-10T14:24:13;19.50;56.70
60313;DHT22;46158;52.850;6.970;2023-06-10T14:26:39;19.50;56.50
60313;DHT22;46158;52.850;6.970;2023-06-10T14:29:06;19.50;57.00
60313;DHT22;46158;52.850;6.970;2023-06-10T14:31:32;19.50;58.10
60313;DHT22;46158;52.850;6.970;2023-06-10T14:34:01;19.50;59.10
60313;DHT22;46158;52.850;6.970;2023-06-10T14:36:28;19.50;59.80
60313;DHT22;46158;52.850;6.970;2023-06-10T14:38:54;19.50;60.00
60313;DHT22;46158;52.850;6.970;2023-06-10T14:41:25;19.50;60.50
60313;DHT22;46158;52.850;6.970;2023-06-10T14:43:54;19.60;60.90
60313;DHT22;46158;52.850;6.970;2023-06-10T14:46:22;19.70;61.50
60313;DHT22;46158;52.850;6.970;2023-06-10T14:48:48;19.70;61.80
60313;DHT22;46158;52.850;6.970;2023-06-10T14:51:15;19.80;61.30
60313;DHT22;46158;52.850;6.970;2023-06-10T14:53:44;19.80;61.80
60313;DHT22;46158;52.850;6.970;2023-06-10T14:56:11;19.80;62.30
60313;DHT22;46158;52.850;6.970;2023-06-10T14:58:40;19.80;62.40
60313;DHT22;46158;52.850;6.970;2023-06-10T15:01:09;19.90;62.60
60313;DHT22;46158;52.850;6.970;2023-06-10T15:03:41;19.90;62.50
60313;DHT22;46158;52.850;6.970;2023-06-10T15:06:07;20.00;62.10
60313;DHT22;46158;52.850;6.970;2023-06-10T15:08:33;19.90;61.50
60313;DHT22;46158;52.850;6.970;2023-06-10T15:11:09;19.90;61.90
60313;DHT22;46158;52.850;6.970;2023-06-10T15:13:34;20.00;63.30
60313;DHT22;46158;52.850;6.970;2023-06-10T15:16:01;20.00;63.00
60313;DHT22;46158;52.850;6.970;2023-06-10T15:18:29;20.00;63.50
60313;DHT22;46158;52.850;6.970;2023-06-10T15:20:55;20.00;63.70
60313;DHT22;46158;52.850;6.970;2023-06-10T15:23:26;20.00;63.10
60313;DHT22;46158;52.850;6.970;2023-06-10T15:25:58;20.10;62.50
60313;DHT22;46158;52.850;6.970;2023-06-10T15:28:26;20.10;63.20
60313;DHT22;46158;52.850;6.970;2023-06-10T15:30:52;20.10;63.80
60313;DHT22;46158;52.850;6.970;2023-06-10T15:33:30;20.10;64.20
60313;DHT22;46158;52.850;6.970;2023-06-10T15:36:07;20.10;63.50
60313;DHT22;46158;52.850;6.970;2023-06-10T15:38:34;20.10;63.30
60313;DHT22;46158;52.850;6.970;2023-06-10T15:41:00;20.10;63.70
60313;DHT22;46158;52.850;6.970;2023-06-10T15:43:26;20.20;64.00
60313;DHT22;46158;52.850;6.970;2023-06-10T15:45:55;20.20;64.70
60313;DHT22;46158;52.850;6.970;2023-06-10T15:48:24;20.20;63.80
60313;DHT22;46158;52.850;6.970;2023-06-10T15:51:01;20.30;63.10
60313;DHT22;46158;52.850;6.970;2023-06-10T15:53:30;20.20;62.90
60313;DHT22;46158;52.850;6.970;2023-06-10T15:55:56;20.20;63.50
60313;DHT22;46158;52.850;6.970;2023-06-10T15:58:25;20.20;64.10
60313;DHT22;46158;52.850;6.970;2023-06-10T16:00:51;20.30;63.40
60313;DHT22;46158;52.850;6.970;2023-06-10T16:03:17;20.20;63.30